createdAt,value
2019-03-25T00:01:00.078Z,27.07
2019-03-25T00:03:29.066Z,28.30
2019-03-25T00:05:58.086Z,25.97
2019-03-25T00:08:27.193Z,25.40
2019-03-25T00:10:56.606Z,24.63
2019-03-25T00:13:25.612Z,25.33
2019-03-25T00:15:56.402Z,25.40
2019-03-25T00:18:25.636Z,24.60
2019-03-25T00:20:54.729Z,23.90
2019-03-25T00:23:23.808Z,26.67
2019-03-25T00:25:52.932Z,22.17
2019-03-25T00:28:22.092Z,25.83
2019-03-25T00:30:51.298Z,27.73
2019-03-25T00:33:20.191Z,24.23
2019-03-25T00:35:49.282Z,24.30
2019-03-25T00:38:18.208Z,26.20
2019-03-25T00:40:47.186Z,24.37
2019-03-25T00:43:16.311Z,28.37
2019-03-25T00:45:45.202Z,25.67
2019-03-25T00:48:14.144Z,24.90
2019-03-25T00:50:43.258Z,28.10
2019-03-25T00:53:12.325Z,26.67
2019-03-25T00:55:41.427Z,26.40
2019-03-25T00:58:10.536Z,26.13
2019-03-25T01:00:39.612Z,26.70
2019-03-25T01:03:08.934Z,27.17
2019-03-25T01:05:37.870Z,27.17
2019-03-25T01:08:07.042Z,29.30
2019-03-25T01:10:36.360Z,30.33
2019-03-25T01:13:05.467Z,26.07
2019-03-25T01:15:34.492Z,26.50
2019-03-25T01:18:03.516Z,29.10
2019-03-25T01:20:32.488Z,26.83
2019-03-25T01:23:01.416Z,29.87
2019-03-25T01:25:30.404Z,29.03
2019-03-25T01:27:59.719Z,31.90
2019-03-25T01:30:28.712Z,29.80
2019-03-25T01:32:57.802Z,28.50
2019-03-25T01:35:26.694Z,28.37
2019-03-25T01:37:55.649Z,27.90
2019-03-25T01:40:24.605Z,27.37
2019-03-25T01:42:53.627Z,26.83
2019-03-25T01:45:22.669Z,27.83
2019-03-25T01:47:51.872Z,27.03
2019-03-25T01:50:20.863Z,28.70
2019-03-25T01:52:49.734Z,29.90
2019-03-25T01:55:18.656Z,28.50
2019-03-25T01:57:47.724Z,25.73
2019-03-25T02:00:16.706Z,28.07
2019-03-25T02:02:45.774Z,29.20
2019-03-25T02:05:14.869Z,28.43
2019-03-25T02:07:43.999Z,31.53
2019-03-25T02:10:13.036Z,28.43
2019-03-25T02:12:42.147Z,28.30
2019-03-25T02:15:11.372Z,28.33
2019-03-25T02:17:40.347Z,27.57
2019-03-25T02:20:09.282Z,27.50
2019-03-25T02:22:38.456Z,26.67
2019-03-25T02:25:07.618Z,27.07
2019-03-25T02:27:36.731Z,30.73
2019-03-25T02:30:06.047Z,29.43
2019-03-25T02:32:34.975Z,27.77
2019-03-25T02:35:03.921Z,25.50
2019-03-25T02:37:33.116Z,27.77
2019-03-25T02:40:02.204Z,28.70
2019-03-25T02:42:31.136Z,31.13
2019-03-25T02:45:00.535Z,30.13
2019-03-25T02:47:29.787Z,30.70
2019-03-25T02:49:58.799Z,26.07
2019-03-25T02:52:28.202Z,29.73
2019-03-25T02:54:57.212Z,31.17
2019-03-25T02:57:26.174Z,30.63
2019-03-25T02:59:55.206Z,30.33
2019-03-25T03:02:24.408Z,27.47
2019-03-25T03:04:53.564Z,28.70
2019-03-25T03:07:22.684Z,29.63
2019-03-25T03:09:51.651Z,26.43
2019-03-25T03:12:20.599Z,29.53
2019-03-25T03:14:49.570Z,32.27
2019-03-25T03:17:18.503Z,30.57
2019-03-25T03:19:47.508Z,33.33
2019-03-25T03:22:16.661Z,29.00
2019-03-25T03:24:45.669Z,31.13
2019-03-25T03:27:14.805Z,29.93
2019-03-25T03:29:43.870Z,32.13
2019-03-25T03:32:12.941Z,35.00
2019-03-25T03:34:42.026Z,34.03
2019-03-25T03:37:11.204Z,31.67
2019-03-25T03:39:40.062Z,31.20
2019-03-25T03:42:09.389Z,31.83
2019-03-25T03:44:38.299Z,29.73
2019-03-25T03:47:07.259Z,29.30
2019-03-25T03:49:36.202Z,28.90
2019-03-25T03:52:05.682Z,27.53
2019-03-25T03:54:34.763Z,28.27
2019-03-25T03:57:03.829Z,28.73
2019-03-25T03:59:32.784Z,29.90
2019-03-25T04:02:01.748Z,29.17
2019-03-25T04:04:30.787Z,29.87
2019-03-25T04:06:59.871Z,26.90
2019-03-25T04:09:29.015Z,29.77
2019-03-25T04:11:58.186Z,30.73
2019-03-25T04:14:27.206Z,28.03
2019-03-25T04:16:56.142Z,32.17
2019-03-25T04:19:25.359Z,30.30
2019-03-25T04:21:54.489Z,29.10
2019-03-25T04:24:23.407Z,26.70
2019-03-25T04:26:52.529Z,31.83
2019-03-25T04:29:21.586Z,28.37
2019-03-25T04:31:50.611Z,31.40
2019-03-25T04:34:19.649Z,28.53
2019-03-25T04:36:48.587Z,27.50
2019-03-25T04:39:17.536Z,27.93
2019-03-25T04:41:46.663Z,26.87
2019-03-25T04:44:15.738Z,26.77
2019-03-25T04:46:44.769Z,26.77
2019-03-25T04:49:13.932Z,28.80
2019-03-25T04:51:44.839Z,26.60
2019-03-25T04:54:14.263Z,26.53
2019-03-25T04:56:43.783Z,29.13
2019-03-25T04:59:12.695Z,27.60
2019-03-25T05:01:41.683Z,26.60
2019-03-25T05:04:10.687Z,25.43
2019-03-25T05:06:39.841Z,28.97
2019-03-25T05:09:08.721Z,29.37
2019-03-25T05:11:37.790Z,27.73
2019-03-25T05:14:06.823Z,28.80
2019-03-25T05:16:35.705Z,28.37
2019-03-25T05:19:04.707Z,28.00
2019-03-25T05:21:33.955Z,26.77
2019-03-25T05:24:02.887Z,29.87
2019-03-25T05:26:32.006Z,29.57
2019-03-25T05:29:01.073Z,26.87
2019-03-25T05:31:29.930Z,26.50
2019-03-25T05:33:59.101Z,29.13
2019-03-25T05:36:28.104Z,27.90
2019-03-25T05:38:57.130Z,27.17
2019-03-25T05:41:26.070Z,29.73
2019-03-25T05:43:55.003Z,30.00
2019-03-25T05:46:24.271Z,28.97
2019-03-25T05:48:53.155Z,31.00
2019-03-25T05:51:22.064Z,26.83
2019-03-25T05:53:50.932Z,30.10
2019-03-25T05:56:19.905Z,31.13
2019-03-25T05:58:49.094Z,36.83
2019-03-25T06:01:18.431Z,30.80
2019-03-25T06:03:47.388Z,31.17
2019-03-25T06:06:16.685Z,28.40
2019-03-25T06:08:45.832Z,28.60
2019-03-25T06:11:14.949Z,31.23
2019-03-25T06:13:43.980Z,31.27
2019-03-25T06:16:13.085Z,26.33
2019-03-25T06:18:42.072Z,29.73
2019-03-25T06:21:11.037Z,30.53
2019-03-25T06:23:40.231Z,31.20
2019-03-25T06:26:09.240Z,32.03
2019-03-25T06:28:38.522Z,36.67
2019-03-25T06:31:07.706Z,30.83
2019-03-25T06:33:36.735Z,30.87
2019-03-25T06:36:05.824Z,33.17
2019-03-25T06:38:34.870Z,30.33
2019-03-25T06:41:03.925Z,32.40
2019-03-25T06:43:33.061Z,31.43
2019-03-25T06:46:02.298Z,32.13
2019-03-25T06:48:31.295Z,31.07
2019-03-25T06:51:00.332Z,30.20
2019-03-25T06:53:29.498Z,37.17
2019-03-25T06:55:58.605Z,35.13
2019-03-25T06:58:27.700Z,36.07
2019-03-25T07:00:56.758Z,28.43
2019-03-25T07:03:25.840Z,29.87
2019-03-25T07:05:54.920Z,31.20
2019-03-25T07:08:24.208Z,36.23
2019-03-25T07:10:53.318Z,29.67
2019-03-25T07:13:22.482Z,30.77
2019-03-25T07:15:51.536Z,42.07
2019-03-25T07:18:20.763Z,45.03
2019-03-25T07:20:49.773Z,45.70
2019-03-25T07:23:18.828Z,44.83
2019-03-25T07:25:48.042Z,44.23
2019-03-25T07:28:17.046Z,40.97
2019-03-25T07:30:46.242Z,42.93
2019-03-25T07:33:15.518Z,49.53
2019-03-25T07:35:44.732Z,43.77
2019-03-25T07:38:13.741Z,44.10
2019-03-25T07:40:42.918Z,44.93
2019-03-25T07:43:12.116Z,42.37
2019-03-25T07:45:41.077Z,47.40
2019-03-25T07:48:10.211Z,47.63
2019-03-25T07:50:39.512Z,47.27
2019-03-25T07:53:08.638Z,45.83
2019-03-25T07:55:37.660Z,45.67
2019-03-25T07:58:06.846Z,47.10
2019-03-25T08:00:36.141Z,41.27
2019-03-25T08:03:05.193Z,44.70
2019-03-25T08:05:34.290Z,39.83
2019-03-25T08:08:03.298Z,42.57
2019-03-25T08:10:35.861Z,41.83
2019-03-25T08:13:05.357Z,42.87
2019-03-25T08:15:34.604Z,45.53
2019-03-25T08:18:04.274Z,43.53
2019-03-25T08:20:33.454Z,41.87
2019-03-25T08:23:02.780Z,41.90
2019-03-25T08:25:31.719Z,44.50
2019-03-25T08:28:00.876Z,39.90
2019-03-25T08:30:30.370Z,40.33
2019-03-25T08:32:59.342Z,40.67
2019-03-25T08:35:28.554Z,40.27
2019-03-25T08:37:57.660Z,41.63
2019-03-25T08:40:26.629Z,39.73
2019-03-25T08:42:55.736Z,38.90
2019-03-25T08:45:24.960Z,37.87
2019-03-25T08:47:53.983Z,37.80
2019-03-25T08:50:23.124Z,35.53
2019-03-25T08:52:52.148Z,36.27
2019-03-25T08:55:21.104Z,38.53
2019-03-25T08:57:50.148Z,38.83
2019-03-25T09:00:19.219Z,39.27
2019-03-25T09:02:48.413Z,38.17
2019-03-25T09:05:17.619Z,37.47
2019-03-25T09:07:46.947Z,40.33
2019-03-25T09:10:16.245Z,41.27
2019-03-25T09:12:45.547Z,41.10
2019-03-25T09:15:14.881Z,40.40
2019-03-25T09:17:44.036Z,39.20
2019-03-25T09:20:13.439Z,38.97
2019-03-25T09:22:42.619Z,40.97
2019-03-25T09:25:12.373Z,42.23
2019-03-25T09:27:41.711Z,35.83
2019-03-25T09:30:11.070Z,43.10
2019-03-25T09:32:40.390Z,37.37
2019-03-25T09:35:10.110Z,37.67
2019-03-25T09:37:39.408Z,38.37
2019-03-25T09:40:09.166Z,34.10
2019-03-25T09:42:38.096Z,37.47
2019-03-25T09:45:08.036Z,37.07
2019-03-25T09:47:37.918Z,31.83
2019-03-25T09:50:07.955Z,33.43
2019-03-25T09:52:38.777Z,30.10
2019-03-25T09:55:09.066Z,32.50
2019-03-25T09:57:38.209Z,30.50
2019-03-25T10:00:08.936Z,33.13
2019-03-25T10:02:38.279Z,29.97
2019-03-25T10:05:09.172Z,28.07
2019-03-25T10:07:38.131Z,29.07
2019-03-25T10:10:08.058Z,27.90
2019-03-25T10:12:36.956Z,26.93
2019-03-25T10:15:06.404Z,26.70
2019-03-25T10:17:35.684Z,23.93
2019-03-25T10:20:05.971Z,24.17
2019-03-25T10:22:35.075Z,19.00
2019-03-25T10:25:04.354Z,19.80
2019-03-25T10:27:33.535Z,17.10
2019-03-25T10:30:02.883Z,16.43
2019-03-25T10:32:31.977Z,18.93
2019-03-25T10:35:01.236Z,18.37
2019-03-25T10:37:30.473Z,17.47
2019-03-25T10:39:59.432Z,18.73
2019-03-25T10:42:28.373Z,15.97
2019-03-25T10:44:57.435Z,13.27
2019-03-25T10:47:26.531Z,11.97
2019-03-25T10:49:55.652Z,12.87
2019-03-25T10:52:24.864Z,14.60
2019-03-25T10:54:53.737Z,16.37
2019-03-25T10:57:22.704Z,15.63
2019-03-25T10:59:51.656Z,9.03
2019-03-25T11:02:20.633Z,8.40
2019-03-25T11:04:49.776Z,6.63
2019-03-25T11:07:18.771Z,9.80
2019-03-25T11:09:48.006Z,7.67
2019-03-25T11:12:16.988Z,12.63
2019-03-25T11:14:45.998Z,12.10
2019-03-25T11:17:15.090Z,13.90
2019-03-25T11:19:44.413Z,11.03
2019-03-25T11:22:13.912Z,7.70
2019-03-25T11:24:42.976Z,7.97
2019-03-25T11:27:11.999Z,9.17
2019-03-25T11:29:41.110Z,7.63
2019-03-25T11:32:10.327Z,6.87
2019-03-25T11:34:39.340Z,9.07
2019-03-25T11:37:08.210Z,8.27
2019-03-25T11:39:37.117Z,6.47
2019-03-25T11:42:06.338Z,6.97
2019-03-25T11:44:35.498Z,7.67
2019-03-25T11:47:04.475Z,8.33
2019-03-25T11:49:33.559Z,5.87
2019-03-25T11:52:02.623Z,9.17
2019-03-25T11:54:31.929Z,7.50
2019-03-25T11:57:00.990Z,7.83
2019-03-25T11:59:29.956Z,7.50
2019-03-25T12:01:58.812Z,7.17
2019-03-25T12:04:27.862Z,8.10
2019-03-25T12:06:57.001Z,7.40
2019-03-25T12:09:26.047Z,6.70
2019-03-25T12:11:54.995Z,9.83
2019-03-25T12:14:24.309Z,8.87
2019-03-25T12:16:53.479Z,8.83
2019-03-25T12:19:22.751Z,9.70
2019-03-25T12:21:51.951Z,6.40
2019-03-25T12:24:20.967Z,8.23
2019-03-25T12:26:49.963Z,8.57
2019-03-25T12:29:29.334Z,10.40
2019-03-25T12:31:49.788Z,8.17
2019-03-25T12:34:19.062Z,8.40
2019-03-25T12:36:48.161Z,9.40
2019-03-25T12:39:17.135Z,12.37
2019-03-25T12:41:46.113Z,8.80
2019-03-25T12:44:15.416Z,7.37
2019-03-25T12:46:44.505Z,9.83
2019-03-25T12:49:13.621Z,5.80
2019-03-25T12:51:42.549Z,8.73
2019-03-25T12:54:11.557Z,7.23
2019-03-25T12:56:40.437Z,8.37
2019-03-25T12:59:09.609Z,7.23
2019-03-25T13:01:38.567Z,8.17
2019-03-25T13:04:07.463Z,8.10
2019-03-25T13:06:36.423Z,9.60
2019-03-25T13:09:06.866Z,8.23
2019-03-25T13:11:35.834Z,8.47
2019-03-25T13:14:04.838Z,8.77
2019-03-25T13:16:33.855Z,7.93
2019-03-25T13:19:02.877Z,7.30
2019-03-25T13:21:31.807Z,10.47
2019-03-25T13:24:00.749Z,6.50
2019-03-25T13:26:30.084Z,6.17
2019-03-25T13:29:02.385Z,6.97
2019-03-25T13:31:30.178Z,6.63
2019-03-25T13:33:59.369Z,7.27
2019-03-25T13:36:28.533Z,7.60
2019-03-25T13:38:58.028Z,4.90
2019-03-25T13:41:27.181Z,6.10
2019-03-25T13:43:56.238Z,6.27
2019-03-25T13:46:25.445Z,5.63
2019-03-25T13:48:55.171Z,5.97
2019-03-25T13:51:24.291Z,7.00
2019-03-25T13:53:53.364Z,4.73
2019-03-25T13:56:22.746Z,4.00
2019-03-25T13:58:51.747Z,2.43
2019-03-25T14:01:20.727Z,2.80
2019-03-25T14:03:50.006Z,3.30
2019-03-25T14:06:19.141Z,3.80
2019-03-25T14:08:48.275Z,3.30
2019-03-25T14:11:17.567Z,5.13
2019-03-25T14:13:49.514Z,4.03
2019-03-25T14:16:17.938Z,4.33
2019-03-25T14:18:46.884Z,5.17
2019-03-25T14:21:15.740Z,4.77
2019-03-25T14:23:44.859Z,3.20
2019-03-25T14:26:13.890Z,2.93
2019-03-25T14:28:43.132Z,3.83
2019-03-25T14:31:12.060Z,4.20
2019-03-25T14:33:41.144Z,2.33
2019-03-25T14:36:10.090Z,2.33
2019-03-25T14:38:39.214Z,3.83
2019-03-25T14:41:08.285Z,2.40
2019-03-25T14:43:37.178Z,2.43
2019-03-25T14:46:06.294Z,2.70
2019-03-25T14:48:35.318Z,3.33
2019-03-25T14:51:04.224Z,4.50
2019-03-25T14:53:33.476Z,3.57
2019-03-25T14:56:02.619Z,2.73
2019-03-25T14:58:31.940Z,2.37
2019-03-25T15:01:01.278Z,1.77
2019-03-25T15:03:30.331Z,2.00
2019-03-25T15:05:59.540Z,2.27
2019-03-25T15:08:28.482Z,3.40
2019-03-25T15:10:57.326Z,2.67
2019-03-25T15:13:26.210Z,3.33
2019-03-25T15:15:55.725Z,2.73
2019-03-25T15:18:24.641Z,2.77
2019-03-25T15:20:53.536Z,3.67
2019-03-25T15:23:22.538Z,2.47
2019-03-25T15:25:51.525Z,3.60
2019-03-25T15:28:20.562Z,3.23
2019-03-25T15:30:49.582Z,2.37
2019-03-25T15:33:18.695Z,5.60
2019-03-25T15:35:47.534Z,2.47
2019-03-25T15:38:16.388Z,2.03
2019-03-25T15:40:45.290Z,2.87
2019-03-25T15:43:14.332Z,2.30
2019-03-25T15:45:43.237Z,3.23
2019-03-25T15:48:12.419Z,2.00
2019-03-25T15:50:41.497Z,2.00
2019-03-25T15:53:10.655Z,1.40
2019-03-25T15:55:39.920Z,2.17
2019-03-25T15:58:08.839Z,4.60
2019-03-25T16:00:46.994Z,1.70
2019-03-25T16:03:08.556Z,2.80
2019-03-25T16:05:37.463Z,2.17
2019-03-25T16:08:06.345Z,3.20
2019-03-25T16:10:35.498Z,1.67
2019-03-25T16:13:04.947Z,6.97
2019-03-25T16:15:41.653Z,3.13
2019-03-25T16:18:12.087Z,2.50
2019-03-25T16:20:41.394Z,2.40
2019-03-25T16:23:10.312Z,2.97
2019-03-25T16:25:39.310Z,4.83
2019-03-25T16:28:08.234Z,2.47
2019-03-25T16:30:37.477Z,2.30
2019-03-25T16:33:06.572Z,1.63
2019-03-25T16:35:35.625Z,3.17
2019-03-25T16:38:04.493Z,3.77
2019-03-25T16:40:33.491Z,2.83
2019-03-25T16:43:02.532Z,3.60
2019-03-25T16:45:31.383Z,2.70
2019-03-25T16:48:00.420Z,2.30
2019-03-25T16:50:29.697Z,3.27
2019-03-25T16:52:58.633Z,3.00
2019-03-25T16:55:27.591Z,2.33
2019-03-25T16:57:56.422Z,2.73
2019-03-25T17:00:27.488Z,3.57
2019-03-25T17:02:56.179Z,3.63
2019-03-25T17:05:25.123Z,2.93
2019-03-25T17:07:54.184Z,3.17
2019-03-25T17:10:23.236Z,2.40
2019-03-25T17:12:52.398Z,1.93
2019-03-25T17:15:21.345Z,3.43
2019-03-25T17:17:50.483Z,2.97
2019-03-25T17:20:19.484Z,3.57
2019-03-25T17:22:48.627Z,4.10
2019-03-25T17:25:17.736Z,2.87
2019-03-25T17:27:46.663Z,3.47
2019-03-25T17:30:16.203Z,3.00
2019-03-25T17:32:45.180Z,2.93
2019-03-25T17:35:14.260Z,4.57
2019-03-25T17:37:43.199Z,4.07
2019-03-25T17:40:12.501Z,3.03
2019-03-25T17:42:41.536Z,6.33
2019-03-25T17:45:10.682Z,5.03
2019-03-25T17:47:39.648Z,4.53
2019-03-25T17:50:09.144Z,4.23
2019-03-25T17:52:38.229Z,4.00
2019-03-25T17:55:07.432Z,5.13
2019-03-25T17:57:36.424Z,3.73
2019-03-25T18:00:06.881Z,2.50
2019-03-25T18:02:35.810Z,5.20
2019-03-25T18:05:05.849Z,4.03
2019-03-25T18:07:34.808Z,4.83
2019-03-25T18:10:04.178Z,3.10
2019-03-25T18:12:38.862Z,2.20
2019-03-25T18:15:04.384Z,3.17
2019-03-25T18:17:33.394Z,2.90
2019-03-25T18:20:02.392Z,3.83
2019-03-25T18:22:39.198Z,3.97
2019-03-25T18:25:02.160Z,5.73
2019-03-25T18:27:31.120Z,3.87
2019-03-25T18:30:00.327Z,3.00
2019-03-25T18:32:29.571Z,2.73
2019-03-25T18:34:58.582Z,4.67
2019-03-25T18:37:27.457Z,4.43
2019-03-25T18:39:56.403Z,5.27
2019-03-25T18:42:25.503Z,4.30
2019-03-25T18:44:54.552Z,5.43
2019-03-25T18:47:23.706Z,4.23
2019-03-25T18:49:52.960Z,5.03
2019-03-25T18:52:22.055Z,5.67
2019-03-25T18:54:51.154Z,2.60
2019-03-25T18:57:20.245Z,3.60
2019-03-25T18:59:49.134Z,4.83
2019-03-25T19:02:18.158Z,3.63
2019-03-25T19:04:47.272Z,4.83
2019-03-25T19:07:16.327Z,3.97
2019-03-25T19:09:45.642Z,4.87
2019-03-25T19:12:14.601Z,5.00
2019-03-25T19:14:43.701Z,6.43
2019-03-25T19:17:12.947Z,4.20
2019-03-25T19:19:41.899Z,6.00
2019-03-25T19:22:12.701Z,6.47
2019-03-25T19:24:41.756Z,4.70
2019-03-25T19:27:10.615Z,4.50
2019-03-25T19:29:39.507Z,3.90
2019-03-25T19:32:08.513Z,4.40
2019-03-25T19:34:39.456Z,3.13
2019-03-25T19:37:08.497Z,2.90
2019-03-25T19:39:37.623Z,5.50
2019-03-25T19:42:06.623Z,4.33
2019-03-25T19:44:37.385Z,4.80
2019-03-25T19:47:06.368Z,4.67
2019-03-25T19:49:35.290Z,6.67
2019-03-25T19:52:04.643Z,3.40
2019-03-25T19:54:35.418Z,3.83
2019-03-25T19:57:04.417Z,5.80
2019-03-25T19:59:33.526Z,4.43
2019-03-25T20:02:02.701Z,4.30
2019-03-25T20:04:33.691Z,6.13
2019-03-25T20:07:02.712Z,5.13
2019-03-25T20:09:31.905Z,5.73
2019-03-25T20:12:01.085Z,4.90
2019-03-25T20:14:31.793Z,3.83
2019-03-25T20:17:01.349Z,3.47
2019-03-25T20:19:30.433Z,4.00
2019-03-25T20:21:59.521Z,5.07
2019-03-25T20:24:30.264Z,3.83
2019-03-25T20:26:59.339Z,4.23
2019-03-25T20:29:28.226Z,4.73
2019-03-25T20:31:57.143Z,5.33
2019-03-25T20:34:26.187Z,4.50
2019-03-25T20:36:55.277Z,4.43
2019-03-25T20:39:24.127Z,4.70
2019-03-25T20:41:53.117Z,3.47
2019-03-25T20:44:22.336Z,3.63
2019-03-25T20:46:51.394Z,3.70
2019-03-25T20:49:20.721Z,2.63
2019-03-25T20:51:50.008Z,3.63
2019-03-25T20:54:19.179Z,2.90
2019-03-25T20:56:48.196Z,3.50
2019-03-25T20:59:17.303Z,4.33
2019-03-25T21:01:46.144Z,3.40
2019-03-25T21:04:15.155Z,4.43
2019-03-25T21:06:44.181Z,2.73
2019-03-25T21:09:13.162Z,3.80
2019-03-25T21:11:42.195Z,3.97
2019-03-25T21:14:11.169Z,4.53
2019-03-25T21:16:40.327Z,4.97
2019-03-25T21:19:09.375Z,4.63
2019-03-25T21:21:38.286Z,4.03
2019-03-25T21:24:07.238Z,2.00
2019-03-25T21:26:38.317Z,4.27
2019-03-25T21:29:07.386Z,3.20
2019-03-25T21:31:39.025Z,3.87
2019-03-25T22:40:59.079Z,1.87
2019-03-25T22:43:28.116Z,3.20
2019-03-25T22:45:57.204Z,3.10
2019-03-25T22:48:26.157Z,2.30
2019-03-25T22:50:55.187Z,3.83
2019-03-25T22:53:24.339Z,3.70
2019-03-25T22:55:53.453Z,4.77
2019-03-25T22:58:22.407Z,2.63
2019-03-25T23:00:51.887Z,3.80
